createdAt,value
2022-08-12T00:00:59.283Z,1.90
2022-08-12T00:03:44.356Z,1.65
2022-08-12T00:06:29.801Z,2.20
2022-08-12T00:09:15.417Z,1.50
2022-08-12T00:12:00.355Z,1.60
2022-08-12T00:14:45.865Z,1.60
2022-08-12T00:17:31.427Z,1.92
2022-08-12T00:20:18.735Z,1.73
2022-08-12T00:23:04.017Z,1.80
2022-08-12T00:26:22.257Z,1.80
2022-08-12T00:29:06.314Z,2.00
2022-08-12T00:31:51.466Z,1.73
2022-08-12T00:34:36.644Z,1.50
2022-08-12T00:37:23.062Z,1.63
2022-08-12T00:40:11.803Z,1.80
2022-08-12T00:42:40.717Z,1.90
2022-08-12T00:45:08.489Z,1.75
2022-08-12T00:47:35.743Z,1.70
2022-08-12T00:50:02.473Z,1.88
2022-08-12T00:52:29.098Z,2.10
2022-08-12T00:55:00.718Z,1.90
2022-08-12T00:57:31.043Z,1.75
2022-08-12T01:00:08.615Z,2.10
2022-08-12T01:02:37.697Z,2.00
2022-08-12T01:05:28.168Z,2.83
2022-08-12T01:08:13.729Z,2.00
2022-08-12T01:11:01.608Z,1.85
2022-08-12T01:13:30.063Z,2.00
2022-08-12T01:15:59.141Z,1.75
2022-08-12T01:18:28.858Z,1.98
2022-08-12T01:21:17.610Z,1.90
2022-08-12T01:24:29.509Z,1.67
2022-08-12T01:26:56.771Z,1.80
2022-08-12T01:29:33.238Z,2.05
2022-08-12T01:32:05.317Z,1.90
2022-08-12T01:34:37.555Z,1.67
2022-08-12T01:37:08.346Z,1.95
2022-08-12T01:40:36.793Z,1.55
2022-08-12T01:42:43.978Z,1.65
2022-08-12T01:45:12.457Z,1.80
2022-08-12T01:47:54.684Z,1.80
2022-08-12T01:51:00.373Z,1.70
2022-08-12T01:53:50.270Z,1.95
2022-08-12T01:56:19.042Z,1.80
2022-08-12T01:59:04.658Z,1.85
2022-08-12T02:01:36.032Z,2.03
2022-08-12T02:04:42.760Z,1.95
2022-08-12T02:07:43.011Z,1.88
2022-08-12T02:10:50.671Z,1.60
2022-08-12T02:13:41.841Z,1.73
2022-08-12T02:16:14.929Z,2.05
2022-08-12T02:18:59.769Z,1.60
2022-08-12T02:21:39.126Z,2.03
2022-08-12T02:24:07.151Z,2.70
2022-08-12T02:26:34.368Z,1.90
2022-08-12T02:29:01.494Z,2.53
2022-08-12T02:31:29.046Z,1.73
2022-08-12T02:33:56.526Z,2.20
2022-08-12T02:36:26.105Z,1.77
2022-08-12T02:38:57.279Z,2.03
2022-08-12T02:41:26.038Z,1.80
2022-08-12T02:43:58.821Z,1.70
2022-08-12T02:46:32.659Z,2.15
2022-08-12T02:49:03.568Z,1.85
2022-08-12T02:51:32.880Z,2.17
2022-08-12T02:54:05.157Z,2.20
2022-08-12T02:56:36.583Z,1.83
2022-08-12T02:59:04.038Z,1.60
2022-08-12T03:01:34.173Z,2.88
2022-08-12T03:04:03.161Z,2.03
2022-08-12T03:06:38.611Z,2.05
2022-08-12T03:09:05.622Z,2.00
2022-08-12T03:11:42.734Z,2.00
2022-08-12T03:14:14.181Z,1.88
2022-08-12T03:16:41.163Z,1.38
2022-08-12T03:19:08.628Z,1.67
2022-08-12T03:21:52.237Z,2.17
2022-08-12T03:24:27.452Z,2.20
2022-08-12T03:26:55.264Z,1.92
2022-08-12T03:29:30.957Z,2.08
2022-08-12T03:32:00.579Z,2.53
2022-08-12T03:34:29.681Z,1.75
2022-08-12T03:36:58.306Z,2.10
2022-08-12T03:39:45.654Z,2.45
2022-08-12T03:42:17.483Z,1.65
2022-08-12T03:45:44.498Z,2.08
2022-08-12T03:48:37.938Z,1.83
2022-08-12T03:51:26.431Z,2.15
2022-08-12T03:54:12.078Z,2.00
2022-08-12T03:56:57.623Z,2.60
2022-08-12T03:59:42.625Z,2.10
2022-08-12T04:02:14.710Z,2.00
2022-08-12T04:04:45.597Z,1.83
2022-08-12T04:07:13.696Z,2.17
2022-08-12T04:09:41.976Z,2.20
2022-08-12T04:12:32.373Z,2.05
2022-08-12T04:15:00.171Z,2.00
2022-08-12T04:17:28.332Z,2.33
2022-08-12T04:19:59.047Z,2.63
2022-08-12T04:22:30.817Z,2.55
2022-08-12T04:25:02.086Z,2.35
2022-08-12T04:27:32.305Z,2.67
2022-08-12T04:30:31.214Z,2.13
2022-08-12T04:32:48.741Z,2.03
2022-08-12T04:35:16.816Z,2.15
2022-08-12T04:37:58.184Z,2.53
2022-08-12T04:40:31.337Z,2.33
2022-08-12T04:42:58.763Z,2.38
2022-08-12T04:45:28.091Z,2.42
2022-08-12T04:47:54.695Z,2.38
2022-08-12T04:50:34.059Z,2.67
2022-08-12T04:53:08.318Z,1.80
2022-08-12T04:55:37.098Z,2.13
2022-08-12T04:58:03.835Z,2.65
2022-08-12T05:00:30.552Z,2.58
2022-08-12T05:03:00.300Z,2.08
2022-08-12T05:05:27.051Z,2.20
2022-08-12T05:07:54.950Z,2.05
2022-08-12T05:10:33.359Z,2.20
2022-08-12T05:13:03.520Z,2.00
2022-08-12T05:15:30.357Z,2.33
2022-08-12T05:17:59.883Z,2.33
2022-08-12T05:20:29.681Z,2.50
2022-08-12T05:23:13.006Z,2.53
2022-08-12T05:25:43.281Z,2.05
2022-08-12T05:28:41.656Z,2.30
2022-08-12T05:31:08.568Z,2.20
2022-08-12T05:33:40.082Z,2.28
2022-08-12T05:36:14.955Z,2.13
2022-08-12T05:38:57.406Z,2.47
2022-08-12T05:41:35.389Z,2.15
2022-08-12T05:44:07.559Z,2.50
2022-08-12T05:46:34.997Z,1.75
2022-08-12T05:49:02.439Z,2.08
2022-08-12T05:51:39.710Z,2.28
2022-08-12T05:54:09.339Z,2.17
2022-08-12T05:56:36.199Z,2.05
2022-08-12T05:59:07.424Z,2.25
2022-08-12T06:02:11.253Z,2.50
2022-08-12T06:04:21.415Z,2.20
2022-08-12T06:06:53.669Z,2.28
2022-08-12T06:09:22.624Z,2.20
2022-08-12T06:12:04.229Z,2.10
2022-08-12T06:14:35.290Z,2.38
2022-08-12T06:17:02.541Z,2.25
2022-08-12T06:20:27.071Z,2.38
2022-08-12T06:22:16.417Z,2.30
2022-08-12T06:24:43.116Z,2.28
2022-08-12T06:27:09.825Z,2.33
2022-08-12T06:30:07.289Z,2.03
2022-08-12T06:32:27.727Z,2.28
2022-08-12T06:35:24.213Z,2.17
2022-08-12T06:37:45.951Z,2.00
2022-08-12T06:40:37.630Z,1.75
2022-08-12T06:43:05.326Z,1.80
2022-08-12T06:45:45.409Z,1.98
2022-08-12T06:48:13.416Z,1.90
2022-08-12T06:50:40.388Z,2.35
2022-08-12T06:53:09.442Z,1.85
2022-08-12T06:55:36.544Z,1.65
2022-08-12T06:58:10.574Z,2.15
2022-08-12T07:00:37.701Z,1.83
2022-08-12T07:03:22.869Z,1.80
2022-08-12T07:05:50.825Z,1.92
2022-08-12T07:08:18.224Z,1.70
2022-08-12T07:10:57.558Z,1.42
2022-08-12T07:13:25.190Z,1.60
2022-08-12T07:15:55.597Z,1.40
2022-08-12T07:18:23.762Z,1.30
2022-08-12T07:20:52.687Z,2.08
2022-08-12T07:23:19.915Z,1.05
2022-08-12T07:25:46.591Z,1.50
2022-08-12T07:28:17.460Z,1.10
2022-08-12T07:30:45.278Z,1.33
2022-08-12T07:33:13.471Z,1.20
2022-08-12T07:35:45.644Z,1.50
2022-08-12T07:38:30.822Z,1.25
2022-08-12T07:41:06.189Z,2.08
2022-08-12T07:43:36.662Z,1.75
2022-08-12T07:46:07.801Z,0.93
2022-08-12T07:48:41.311Z,1.00
2022-08-12T07:51:08.817Z,1.20
2022-08-12T07:53:37.393Z,1.35
2022-08-12T07:56:24.114Z,0.98
2022-08-12T07:58:50.737Z,0.95
2022-08-12T08:01:21.510Z,1.27
2022-08-12T08:04:13.996Z,0.80
2022-08-12T08:06:43.632Z,1.10
2022-08-12T08:09:12.564Z,1.20
2022-08-12T08:11:58.007Z,1.35
2022-08-12T08:14:31.839Z,1.00
2022-08-12T08:16:59.956Z,1.25
2022-08-12T08:19:29.200Z,0.93
2022-08-12T08:21:57.165Z,1.17
2022-08-12T08:24:27.095Z,1.00
2022-08-12T08:26:56.893Z,1.10
2022-08-12T08:29:24.480Z,1.20
2022-08-12T08:31:54.805Z,1.33
2022-08-12T08:34:33.710Z,1.38
2022-08-12T08:37:10.778Z,0.90
2022-08-12T08:39:44.881Z,0.90
2022-08-12T08:42:30.288Z,0.93
2022-08-12T08:44:58.968Z,1.10
2022-08-12T08:47:25.966Z,0.88
2022-08-12T08:49:52.668Z,1.38
2022-08-12T08:52:40.146Z,1.17
2022-08-12T08:55:09.485Z,0.77
2022-08-12T08:57:42.818Z,0.70
2022-08-12T09:00:16.052Z,1.27
2022-08-12T09:02:49.007Z,0.82
2022-08-12T09:05:26.107Z,0.88
2022-08-12T09:08:11.984Z,1.00
2022-08-12T09:10:45.364Z,1.17
2022-08-12T09:14:11.055Z,0.88
2022-08-12T09:16:21.539Z,0.70
2022-08-12T09:18:52.473Z,1.00
2022-08-12T09:21:19.914Z,0.70
2022-08-12T09:23:59.789Z,1.08
2022-08-12T09:26:38.232Z,0.93
2022-08-12T09:29:20.403Z,0.93
2022-08-12T09:32:09.507Z,1.23
2022-08-12T09:34:42.425Z,0.90
2022-08-12T09:37:19.642Z,0.80
2022-08-12T09:40:04.997Z,0.88
2022-08-12T09:43:16.154Z,1.00
2022-08-12T09:46:11.466Z,0.70
2022-08-12T09:48:36.169Z,0.80
2022-08-12T09:51:16.622Z,1.05
2022-08-12T09:54:05.513Z,0.80
2022-08-12T09:56:58.551Z,0.63
2022-08-12T10:00:13.845Z,0.88
2022-08-12T10:02:43.945Z,1.55
2022-08-12T10:04:59.683Z,0.85
2022-08-12T10:07:28.712Z,1.15
2022-08-12T10:10:07.401Z,0.70
2022-08-12T10:13:10.171Z,0.75
2022-08-12T10:16:01.455Z,0.70
2022-08-12T10:18:26.479Z,0.95
2022-08-12T10:20:53.162Z,0.88
2022-08-12T10:23:20.118Z,0.93
2022-08-12T10:26:37.831Z,0.77
2022-08-12T10:30:01.747Z,1.08
2022-08-12T10:32:21.274Z,0.80
2022-08-12T10:34:53.735Z,0.80
2022-08-12T10:38:35.507Z,1.17
2022-08-12T10:40:15.625Z,1.00
2022-08-12T10:43:05.809Z,0.90
2022-08-12T10:45:32.464Z,0.95
2022-08-12T10:48:21.202Z,0.85
2022-08-12T10:51:02.524Z,1.40
2022-08-12T10:53:45.068Z,0.90
2022-08-12T10:56:17.156Z,1.35
2022-08-12T10:58:47.170Z,0.80
2022-08-12T11:01:50.501Z,1.00
2022-08-12T11:04:18.850Z,0.88
2022-08-12T11:07:06.569Z,1.00
2022-08-12T11:09:51.377Z,1.25
2022-08-12T11:12:54.561Z,0.80
2022-08-12T11:15:18.666Z,1.17
2022-08-12T11:17:53.609Z,0.63
2022-08-12T11:20:21.110Z,1.00
2022-08-12T11:23:04.170Z,1.00
2022-08-12T11:25:57.533Z,0.73
2022-08-12T11:28:34.541Z,0.93
2022-08-12T11:31:06.046Z,1.75
2022-08-12T11:34:05.327Z,1.27
2022-08-12T11:36:22.131Z,1.13
2022-08-12T11:38:50.896Z,1.42
2022-08-12T11:41:31.702Z,0.82
2022-08-12T11:44:30.717Z,1.00
2022-08-12T11:46:53.061Z,0.80
2022-08-12T11:49:31.417Z,0.80
2022-08-12T11:52:02.438Z,1.00
2022-08-12T11:54:30.257Z,1.00
2022-08-12T11:57:02.242Z,1.20
2022-08-12T12:02:20.513Z,1.25
2022-08-12T12:04:52.962Z,1.10
2022-08-12T12:07:22.775Z,1.40
2022-08-12T12:10:10.386Z,0.80
2022-08-12T12:12:38.127Z,1.10
2022-08-12T12:15:09.683Z,0.85
2022-08-12T12:17:38.299Z,0.70
2022-08-12T12:20:12.569Z,0.90
2022-08-12T12:22:40.929Z,0.85
2022-08-12T12:25:13.047Z,0.80
2022-08-12T12:28:04.859Z,1.02
2022-08-12T12:30:34.366Z,1.50
2022-08-12T12:33:00.982Z,0.70
2022-08-12T12:36:05.995Z,0.80
2022-08-12T12:38:15.154Z,0.95
2022-08-12T12:40:50.439Z,1.08
2022-08-12T12:43:42.566Z,1.30
2022-08-12T12:46:07.448Z,0.95
2022-08-12T12:48:35.559Z,0.60
2022-08-12T12:51:48.807Z,1.10
2022-08-12T12:54:08.005Z,0.93
2022-08-12T12:56:42.413Z,0.80
2022-08-12T12:59:55.028Z,0.80
2022-08-12T13:02:07.621Z,0.70
2022-08-12T13:04:35.272Z,1.00
2022-08-12T13:07:05.922Z,0.68
2022-08-12T13:09:36.018Z,1.30
2022-08-12T13:12:03.452Z,0.80
2022-08-12T13:14:35.107Z,1.20
2022-08-12T13:17:02.604Z,0.82
2022-08-12T13:19:45.242Z,1.00
2022-08-12T13:22:19.045Z,0.93
2022-08-12T13:24:56.408Z,0.98
2022-08-12T13:27:36.745Z,0.60
2022-08-12T13:30:12.589Z,1.00
2022-08-12T13:32:56.567Z,0.80
2022-08-12T13:36:02.785Z,0.73
2022-08-12T13:38:26.840Z,1.00
2022-08-12T13:41:03.124Z,0.80
2022-08-12T13:43:39.326Z,0.90
2022-08-12T13:46:12.366Z,0.63
2022-08-12T13:48:44.668Z,0.80
2022-08-12T13:51:12.099Z,0.90
2022-08-12T13:53:59.193Z,1.08
2022-08-12T13:56:34.532Z,0.88
2022-08-12T13:59:03.084Z,1.25
2022-08-12T14:01:31.019Z,1.13
2022-08-12T14:04:04.527Z,0.82
2022-08-12T14:06:32.175Z,0.80
2022-08-12T14:08:59.662Z,0.80
2022-08-12T14:11:28.097Z,1.00
2022-08-12T14:14:04.101Z,0.70
2022-08-12T14:16:49.251Z,0.85
2022-08-12T14:19:22.431Z,0.93
2022-08-12T14:22:00.670Z,0.70
2022-08-12T14:24:35.870Z,1.00
2022-08-12T14:27:09.288Z,0.90
2022-08-12T14:30:04.658Z,1.65
2022-08-12T14:32:29.374Z,1.05
2022-08-12T14:34:56.742Z,0.75
2022-08-12T14:37:55.415Z,1.05
2022-08-12T14:40:18.234Z,1.08
2022-08-12T14:42:46.901Z,1.38
2022-08-12T14:45:13.923Z,0.98
2022-08-12T14:47:49.981Z,1.02
2022-08-12T14:50:40.890Z,1.10
2022-08-12T14:58:59.979Z,1.02
2022-08-12T15:01:40.221Z,0.95
2022-08-12T15:04:10.642Z,0.77
2022-08-12T15:06:44.717Z,1.10
2022-08-12T15:09:19.610Z,0.90
2022-08-12T15:12:03.291Z,0.90
2022-08-12T15:14:30.666Z,1.05
2022-08-12T15:17:00.670Z,1.02
2022-08-12T15:20:12.083Z,1.02
2022-08-12T15:22:38.265Z,0.60
2022-08-12T15:25:05.468Z,1.08
2022-08-12T15:28:05.695Z,1.25
2022-08-12T15:30:22.935Z,0.88
2022-08-12T15:32:50.828Z,0.80
2022-08-12T15:35:17.814Z,0.93
2022-08-12T15:38:09.179Z,1.20
2022-08-12T15:40:33.382Z,0.90
2022-08-12T15:43:04.298Z,1.10
2022-08-12T15:45:37.561Z,0.73
2022-08-12T15:48:20.212Z,0.98
2022-08-12T15:50:48.332Z,0.90
2022-08-12T15:53:39.713Z,1.33
2022-08-12T15:56:12.652Z,0.85
2022-08-12T15:58:43.660Z,1.48
2022-08-12T16:01:14.818Z,1.30
2022-08-12T16:03:46.178Z,0.88
2022-08-12T16:06:50.970Z,0.90
2022-08-12T16:09:21.638Z,1.10
2022-08-12T16:12:05.708Z,1.15
2022-08-12T16:14:33.130Z,0.90
2022-08-12T16:17:01.972Z,1.00
2022-08-12T16:20:02.701Z,1.20
2022-08-12T16:22:16.326Z,1.15
2022-08-12T16:24:52.084Z,1.30
2022-08-12T16:27:19.259Z,1.00
2022-08-12T16:29:57.175Z,0.98
2022-08-12T16:32:31.716Z,0.80
2022-08-12T16:34:59.842Z,0.98
2022-08-12T16:37:33.094Z,1.23
2022-08-12T16:40:14.203Z,1.15
2022-08-12T16:42:53.615Z,1.00
2022-08-12T16:45:32.117Z,2.58
2022-08-12T16:48:35.017Z,3.50
2022-08-12T16:51:09.859Z,3.20
2022-08-12T16:53:44.961Z,1.35
2022-08-12T16:56:15.434Z,1.30
2022-08-12T16:58:43.463Z,1.48
2022-08-12T17:01:14.661Z,1.45
2022-08-12T17:03:52.569Z,1.58
2022-08-12T17:06:22.264Z,1.23
2022-08-12T17:08:55.797Z,1.60
2022-08-12T17:11:22.902Z,1.00
2022-08-12T17:13:53.652Z,1.83
2022-08-12T17:16:21.349Z,1.42
2022-08-12T17:18:57.617Z,1.48
2022-08-12T17:21:41.591Z,1.33
2022-08-12T17:24:17.286Z,1.80
2022-08-12T17:26:49.378Z,1.20
2022-08-12T17:29:24.241Z,1.27
2022-08-12T17:32:08.943Z,1.48
2022-08-12T17:34:55.285Z,1.30
2022-08-12T17:37:22.190Z,1.73
2022-08-12T17:40:13.561Z,1.35
2022-08-12T17:42:38.390Z,1.52
2022-08-12T17:45:17.004Z,1.73
2022-08-12T17:48:00.894Z,1.80
2022-08-12T17:50:39.676Z,1.60
2022-08-12T17:53:10.801Z,1.55
2022-08-12T17:55:43.823Z,1.25
2022-08-12T17:58:14.909Z,1.45
2022-08-12T18:00:45.898Z,1.60
2022-08-12T18:04:05.732Z,1.83
2022-08-12T18:06:13.588Z,1.33
2022-08-12T18:08:54.238Z,1.95
2022-08-12T18:12:04.998Z,1.65
2022-08-12T18:14:28.717Z,1.38
2022-08-12T18:16:55.565Z,1.60
2022-08-12T18:19:24.016Z,1.13
2022-08-12T18:22:02.396Z,1.45
2022-08-12T18:24:29.971Z,1.10
2022-08-12T18:26:57.507Z,1.40
2022-08-12T18:29:27.256Z,1.10
2022-08-12T18:32:43.974Z,1.45
2022-08-12T18:34:57.844Z,1.40
2022-08-12T18:37:42.161Z,1.10
2022-08-12T18:40:28.768Z,1.58
2022-08-12T18:42:57.041Z,1.10
2022-08-12T18:45:31.544Z,1.20
2022-08-12T18:48:16.700Z,1.40
2022-08-12T18:50:51.066Z,1.60
2022-08-12T18:54:05.386Z,1.55
2022-08-12T18:56:07.385Z,2.17
2022-08-12T18:58:59.348Z,1.65
2022-08-12T19:02:20.176Z,1.60
2022-08-12T19:04:15.822Z,1.40
2022-08-12T19:06:46.641Z,1.52
2022-08-12T19:09:15.144Z,1.55
2022-08-12T19:12:02.135Z,1.55
2022-08-12T19:14:30.026Z,1.70
2022-08-12T19:16:59.220Z,1.40
2022-08-12T19:19:25.967Z,1.30
2022-08-12T19:21:56.874Z,1.40
2022-08-12T19:24:43.349Z,1.42
2022-08-12T19:27:10.850Z,1.80
2022-08-12T19:29:43.954Z,2.13
2022-08-12T19:32:14.820Z,1.58
2022-08-12T19:38:04.015Z,1.95
2022-08-12T19:40:33.607Z,1.75
2022-08-12T19:43:59.265Z,1.52
2022-08-12T19:46:17.450Z,1.20
2022-08-12T19:48:58.579Z,1.85
2022-08-12T19:51:35.871Z,1.90
2022-08-12T19:54:03.294Z,1.83
2022-08-12T19:56:30.464Z,1.92
2022-08-12T19:59:18.713Z,2.67
2022-08-12T20:02:02.776Z,1.58
2022-08-12T20:04:32.442Z,1.55
2022-08-12T20:07:00.284Z,2.63
2022-08-12T20:09:27.805Z,1.80
2022-08-12T20:12:12.353Z,1.65
2022-08-12T20:14:46.021Z,2.28
2022-08-12T20:17:13.559Z,2.03
2022-08-12T20:20:16.696Z,2.28
2022-08-12T20:22:31.461Z,2.45
2022-08-12T20:25:01.271Z,2.30
2022-08-12T20:28:04.764Z,2.00
2022-08-12T20:30:16.274Z,2.38
2022-08-12T20:32:55.229Z,2.28
2022-08-12T20:35:24.676Z,2.33
2022-08-12T20:38:06.753Z,2.20
2022-08-12T20:40:38.171Z,2.47
2022-08-12T20:43:06.737Z,2.65
2022-08-12T20:45:50.461Z,3.35
2022-08-12T20:48:25.261Z,3.38
2022-08-12T20:50:53.972Z,3.13
2022-08-12T20:53:53.634Z,3.33
2022-08-12T20:56:30.668Z,2.83
2022-08-12T20:59:01.259Z,2.13
2022-08-12T21:01:36.634Z,2.80
2022-08-12T21:04:34.481Z,2.30
2022-08-12T21:07:08.389Z,2.50
2022-08-12T21:09:46.284Z,2.55
2022-08-12T21:12:31.297Z,3.50
2022-08-12T21:15:23.565Z,3.20
2022-08-12T21:18:11.253Z,2.25
2022-08-12T21:20:52.951Z,2.72
2022-08-12T21:23:23.781Z,2.50
2022-08-12T21:26:01.037Z,2.38
2022-08-12T21:28:31.483Z,2.33
2022-08-12T21:32:36.168Z,2.60
2022-08-12T21:34:06.952Z,2.65
2022-08-12T21:36:37.374Z,2.15
2022-08-12T21:39:18.739Z,2.45
2022-08-12T21:41:52.841Z,3.40
2022-08-12T21:45:43.857Z,2.50
2022-08-12T21:47:21.773Z,2.22
2022-08-12T21:50:03.950Z,2.65
2022-08-12T21:52:40.940Z,2.30
2022-08-12T21:55:17.211Z,2.72
2022-08-12T21:57:50.486Z,2.70
2022-08-12T22:00:19.892Z,3.10
2022-08-12T22:03:05.481Z,2.13
2022-08-12T22:05:53.148Z,2.35
2022-08-12T22:08:25.397Z,2.25
2022-08-12T22:10:56.474Z,2.20
2022-08-12T22:14:04.183Z,2.65
2022-08-12T22:16:12.077Z,2.75
2022-08-12T22:18:40.576Z,2.50
2022-08-12T22:21:09.095Z,2.55
2022-08-12T22:24:04.173Z,2.13
2022-08-12T22:26:29.406Z,2.42
2022-08-12T22:29:22.637Z,2.53
2022-08-12T22:31:49.511Z,2.55
2022-08-12T22:34:18.289Z,2.55
2022-08-12T22:36:45.922Z,2.25
2022-08-12T22:39:17.401Z,2.40
2022-08-12T22:42:02.750Z,2.72
2022-08-12T22:44:52.748Z,2.38
2022-08-12T22:47:53.272Z,2.53
2022-08-12T22:50:27.213Z,2.50
2022-08-12T22:53:15.331Z,2.33
2022-08-12T22:56:00.474Z,2.15
2022-08-12T22:58:34.020Z,2.58
2022-08-12T23:01:01.862Z,2.58
2022-08-12T23:03:49.007Z,2.38
2022-08-12T23:06:23.304Z,2.25
2022-08-12T23:08:54.662Z,2.05
2022-08-12T23:11:23.781Z,2.40
2022-08-12T23:14:01.949Z,2.28
2022-08-12T23:16:33.429Z,2.33
2022-08-12T23:19:10.310Z,2.40
2022-08-12T23:22:05.099Z,2.50
2022-08-12T23:24:55.868Z,2.03
2022-08-12T23:27:51.885Z,2.35
2022-08-12T23:30:31.079Z,2.53
2022-08-12T23:33:00.634Z,2.40
2022-08-12T23:35:53.550Z,2.42
2022-08-12T23:38:30.794Z,2.13
2022-08-12T23:40:59.972Z,1.70
2022-08-12T23:43:39.750Z,3.15
2022-08-12T23:46:10.927Z,2.00
2022-08-12T23:48:38.112Z,2.45
2022-08-12T23:51:22.027Z,2.35
2022-08-12T23:53:50.681Z,2.47
2022-08-12T23:56:17.629Z,1.85
2022-08-12T23:58:52.683Z,1.60
